Time;durP1;ratioP1;P1;durP2;ratioP2;P2;SDS_P1;SDS_P2;PMS_P1;PMS_P2;Temp;Humidity;BMP_temperature;BMP_pressure;BME280_temperature;BME280_humidity;BME280_pressure;Samples;Min_cycle;Max_cycle;Signal;HPM_P1;HPM_P2
2023/04/29 00:01:25;;;;;;;46.05;24.58;;;9.20;99.90;;;;;;5007703;28;20045;-78
2023/04/29 00:03:52;;;;;;;48.45;24.60;;;9.10;99.90;;;;;;5005055;28;20068;-79
2023/04/29 00:06:17;;;;;;;43.38;25.52;;;9.10;99.90;;;;;;5002195;28;20087;-79
2023/04/29 00:08:43;;;;;;;43.95;24.38;;;9.10;99.90;;;;;;5004683;28;20049;-78
2023/04/29 00:11:10;;;;;;;46.00;24.25;;;9.10;99.90;;;;;;5003440;28;20085;-77
2023/04/29 00:13:38;;;;;;;47.08;23.90;;;9.10;99.90;;;;;;5001952;28;20041;-77
2023/04/29 00:16:04;;;;;;;41.33;23.60;;;9.10;99.90;;;;;;4989920;28;20073;-77
2023/04/29 00:18:31;;;;;;;43.28;23.38;;;9.10;99.90;;;;;;5005676;28;20073;-77
2023/04/29 00:20:56;;;;;;;40.25;22.98;;;9.10;99.90;;;;;;4991155;28;20050;-78
2023/04/29 00:23:22;;;;;;;39.97;21.17;;;9.00;99.90;;;;;;5004589;28;20549;-78
2023/04/29 00:25:49;;;;;;;48.28;22.25;;;9.00;99.90;;;;;;5004637;28;20061;-77
2023/04/29 00:28:15;;;;;;;36.67;21.70;;;9.00;99.90;;;;;;5002779;28;20073;-78
2023/04/29 00:30:40;;;;;;;36.70;21.48;;;9.00;99.90;;;;;;5003032;28;20512;-76
2023/04/29 00:33:06;;;;;;;33.22;21.58;;;9.40;99.90;;;;;;5003923;28;20048;-78
2023/04/29 00:35:32;;;;;;;37.17;20.40;;;9.00;99.90;;;;;;5006155;28;20115;-78
2023/04/29 00:37:57;;;;;;;41.88;20.60;;;9.00;99.90;;;;;;5000306;28;20049;-77
2023/04/29 00:40:23;;;;;;;42.15;20.67;;;9.00;99.90;;;;;;5005034;28;20073;-77
2023/04/29 00:42:49;;;;;;;36.90;20.90;;;9.20;99.90;;;;;;5004725;28;20030;-79
2023/04/29 00:45:15;;;;;;;37.47;20.05;;;9.00;99.90;;;;;;4987132;28;20112;-78
2023/04/29 00:47:41;;;;;;;38.95;20.52;;;9.00;99.90;;;;;;5004934;28;20050;-78
2023/04/29 00:50:07;;;;;;;43.35;22.58;;;9.00;99.90;;;;;;5007095;28;20058;-76
2023/04/29 00:52:34;;;;;;;34.67;20.20;;;9.00;99.90;;;;;;5005407;28;20536;-77
2023/04/29 00:55:00;;;;;;;38.75;20.33;;;9.00;99.90;;;;;;5022647;28;20092;-77
2023/04/29 00:57:29;;;;;;;36.33;20.98;;;9.00;99.90;;;;;;4988221;28;20423;-78
2023/04/29 00:59:58;;;;;;;37.25;20.10;;;9.00;99.90;;;;;;5006718;28;20045;-78
2023/04/29 01:02:25;;;;;;;33.17;19.48;;;9.00;99.90;;;;;;4995210;28;20553;-77
2023/04/29 01:04:51;;;;;;;32.88;19.33;;;9.00;99.90;;;;;;5008208;28;20049;-77
2023/04/29 01:07:27;;;;;;;39.63;20.15;;;9.00;99.90;;;;;;4994981;28;20042;-78
2023/04/29 01:10:06;;;;;;;40.42;19.75;;;9.00;99.90;;;;;;4999558;28;20100;-77
2023/04/29 01:13:00;;;;;;;39.20;19.42;;;9.00;99.90;;;;;;5003360;28;20107;-77
2023/04/29 01:15:47;;;;;;;32.58;18.50;;;9.00;99.90;;;;;;5013230;28;20049;-79
2023/04/29 01:18:16;;;;;;;29.50;17.33;;;9.00;99.90;;;;;;5007459;28;20415;-78
2023/04/29 01:20:43;;;;;;;36.83;18.00;;;9.00;99.90;;;;;;4990574;28;20077;-77
2023/04/29 01:23:09;;;;;;;33.22;17.50;;;9.00;99.90;;;;;;5001886;28;20527;-77
2023/04/29 01:25:37;;;;;;;32.45;18.00;;;8.90;99.90;;;;;;5003560;28;20820;-77
2023/04/29 01:28:25;;;;;;;34.47;18.13;;;8.90;99.90;;;;;;4976067;28;20061;-78
2023/04/29 01:31:40;;;;;;;31.58;18.17;;;8.90;99.90;;;;;;5004618;28;20153;-78
2023/04/29 01:34:24;;;;;;;33.92;18.63;;;8.90;99.90;;;;;;5000030;28;20085;-78
2023/04/29 01:37:18;;;;;;;38.72;19.17;;;8.90;99.90;;;;;;5001439;28;20042;-78
2023/04/29 01:40:16;;;;;;;32.45;18.30;;;8.90;99.90;;;;;;5003040;28;20125;-78
2023/04/29 01:42:53;;;;;;;32.80;18.98;;;8.90;99.90;;;;;;4996154;28;20044;-78
2023/04/29 01:45:20;;;;;;;32.30;18.83;;;8.90;99.90;;;;;;5004978;28;20103;-77
2023/04/29 01:47:47;;;;;;;36.83;19.65;;;8.90;99.90;;;;;;5005560;28;20758;-77
2023/04/29 01:50:13;;;;;;;33.10;18.65;;;8.90;99.90;;;;;;4977505;28;20042;-77
2023/04/29 01:52:39;;;;;;;35.03;19.30;;;8.90;99.90;;;;;;5005485;28;20630;-77
2023/04/29 01:55:05;;;;;;;34.83;19.60;;;8.90;99.90;;;;;;5005731;28;20081;-77
2023/04/29 01:57:31;;;;;;;31.95;18.33;;;8.90;99.90;;;;;;5004815;28;20041;-77
2023/04/29 01:59:56;;;;;;;31.35;18.55;;;9.10;99.90;;;;;;4983669;28;20053;-77
2023/04/29 02:02:24;;;;;;;28.75;18.55;;;9.10;99.90;;;;;;5004365;28;20045;-76
2023/04/29 02:04:50;;;;;;;32.15;17.83;;;8.80;99.90;;;;;;4985579;28;20487;-76
2023/04/29 02:07:16;;;;;;;32.60;18.67;;;8.80;99.90;;;;;;5007409;28;20054;-77
2023/04/29 02:09:42;;;;;;;32.83;19.33;;;8.80;99.90;;;;;;5004633;28;20045;-77
2023/04/29 02:12:07;;;;;;;30.15;18.48;;;8.70;99.90;;;;;;5005973;28;20038;-76
2023/04/29 02:14:33;;;;;;;29.58;17.75;;;8.70;99.90;;;;;;5003824;28;20103;-77
2023/04/29 02:16:59;;;;;;;29.92;17.98;;;8.70;99.90;;;;;;5006247;28;20049;-77
2023/04/29 02:19:25;;;;;;;32.50;18.85;;;8.70;99.90;;;;;;5004253;28;20491;-76
2023/04/29 02:21:51;;;;;;;28.63;18.00;;;8.60;99.90;;;;;;5005824;28;20038;-77
2023/04/29 02:24:16;;;;;;;29.27;17.67;;;8.70;99.90;;;;;;4997342;28;20481;-77
2023/04/29 02:26:42;;;;;;;35.78;17.83;;;8.60;99.90;;;;;;4991901;28;20042;-77
2023/04/29 02:29:08;;;;;;;36.65;17.88;;;9.10;99.90;;;;;;5005156;28;20054;-77
2023/04/29 02:31:34;;;;;;;31.52;17.77;;;8.60;99.90;;;;;;5005839;28;20557;-76
2023/04/29 02:33:59;;;;;;;30.50;17.67;;;8.60;99.90;;;;;;5006355;28;20523;-77
2023/04/29 02:36:25;;;;;;;33.88;17.60;;;8.60;99.90;;;;;;5005871;28;20052;-77
2023/04/29 02:38:55;;;;;;;37.85;18.25;;;8.60;99.90;;;;;;4989037;28;20046;-77
2023/04/29 02:41:21;;;;;;;31.95;18.08;;;8.60;99.90;;;;;;5006001;28;20128;-76
2023/04/29 02:43:47;;;;;;;31.13;17.35;;;8.50;99.90;;;;;;4979030;28;20050;-77
2023/04/29 02:46:14;;;;;;;33.97;19.08;;;8.60;99.90;;;;;;4999698;28;20455;-77
2023/04/29 02:48:40;;;;;;;31.63;18.23;;;9.00;99.90;;;;;;5004466;28;20108;-77
2023/04/29 02:51:06;;;;;;;35.97;19.77;;;8.60;99.90;;;;;;5004079;28;20152;-76
2023/04/29 02:53:32;;;;;;;40.05;21.10;;;8.70;99.90;;;;;;4994523;28;20058;-76
2023/04/29 02:55:58;;;;;;;36.95;19.20;;;8.60;99.90;;;;;;4985191;28;20714;-76
2023/04/29 02:58:23;;;;;;;40.35;20.38;;;8.50;99.90;;;;;;4995318;28;20136;-77
2023/04/29 03:00:49;;;;;;;40.20;20.55;;;8.50;99.90;;;;;;5004814;28;20054;-77
2023/04/29 03:03:16;;;;;;;31.83;17.70;;;8.60;99.90;;;;;;5004035;28;20073;-76
2023/04/29 03:05:42;;;;;;;38.55;17.23;;;8.50;99.90;;;;;;5000110;28;20500;-76
2023/04/29 03:08:09;;;;;;;32.90;16.38;;;8.60;99.90;;;;;;5000661;28;20046;-77
2023/04/29 03:10:35;;;;;;;39.53;16.38;;;8.60;99.90;;;;;;5005133;28;20053;-77
2023/04/29 03:13:01;;;;;;;35.35;16.20;;;8.60;99.90;;;;;;4987384;28;20061;-76
2023/04/29 03:15:26;;;;;;;36.35;14.85;;;8.60;99.90;;;;;;5005910;28;20763;-76
2023/04/29 03:17:52;;;;;;;31.50;15.60;;;8.50;99.90;;;;;;4996303;28;20046;-76
2023/04/29 03:20:19;;;;;;;31.02;15.00;;;8.60;99.90;;;;;;5003681;28;20141;-76
2023/04/29 03:22:45;;;;;;;34.20;15.82;;;8.50;99.90;;;;;;5002878;28;20042;-76
2023/04/29 03:25:12;;;;;;;33.08;14.68;;;8.50;99.90;;;;;;5002628;28;20061;-77
2023/04/29 03:27:38;;;;;;;27.58;15.20;;;8.60;99.90;;;;;;5006418;28;20413;-76
2023/04/29 03:30:05;;;;;;;33.85;16.00;;;8.60;99.90;;;;;;5007724;28;20081;-77
2023/04/29 03:32:31;;;;;;;39.22;16.45;;;8.60;99.90;;;;;;5009962;28;20060;-76
2023/04/29 03:34:57;;;;;;;32.92;15.45;;;8.60;99.90;;;;;;5005798;28;20041;-77
2023/04/29 03:37:23;;;;;;;34.95;15.00;;;9.10;99.90;;;;;;4972142;28;20458;-77
2023/04/29 03:39:48;;;;;;;32.63;16.02;;;8.60;99.90;;;;;;4973177;28;20047;-76
2023/04/29 03:42:14;;;;;;;33.00;16.88;;;8.60;99.90;;;;;;5006077;28;20050;-76
2023/04/29 03:44:40;;;;;;;34.38;15.10;;;8.60;99.90;;;;;;5009845;28;20442;-77
2023/04/29 03:47:06;;;;;;;30.70;14.40;;;8.60;99.90;;;;;;5008377;28;20042;-77
2023/04/29 03:49:32;;;;;;;29.98;15.27;;;8.60;99.90;;;;;;5008027;28;20046;-76
2023/04/29 03:51:58;;;;;;;27.83;14.90;;;8.60;99.90;;;;;;5008986;28;20073;-77
2023/04/29 03:54:24;;;;;;;27.10;14.10;;;8.60;99.90;;;;;;5006960;28;20045;-77
2023/04/29 03:56:50;;;;;;;28.90;15.30;;;8.60;99.90;;;;;;4989726;28;20046;-77
2023/04/29 03:59:15;;;;;;;36.20;17.42;;;8.60;99.90;;;;;;5007569;28;20123;-77
2023/04/29 04:01:41;;;;;;;30.42;15.98;;;8.60;99.90;;;;;;5008130;28;20182;-76
2023/04/29 04:04:07;;;;;;;35.38;16.95;;;8.60;99.90;;;;;;5006172;28;20146;-77
2023/04/29 04:06:32;;;;;;;34.35;17.58;;;8.60;99.90;;;;;;4994150;28;20042;-77
2023/04/29 04:08:58;;;;;;;34.75;18.25;;;8.50;99.90;;;;;;4975841;28;20038;-77
2023/04/29 04:11:24;;;;;;;32.15;18.20;;;8.60;99.90;;;;;;5007246;28;20096;-77
2023/04/29 04:13:50;;;;;;;37.92;17.35;;;8.50;99.90;;;;;;5009092;28;20133;-77
2023/04/29 04:16:16;;;;;;;35.95;17.65;;;8.50;99.90;;;;;;5006643;28;20042;-77
2023/04/29 04:18:42;;;;;;;42.20;16.60;;;8.80;99.90;;;;;;4997069;28;20050;-77
2023/04/29 04:21:11;;;;;;;29.58;14.63;;;8.60;99.90;;;;;;4981725;28;20126;-79
2023/04/29 04:23:40;;;;;;;31.92;16.42;;;8.50;99.90;;;;;;4988534;28;20042;-78
2023/04/29 04:26:07;;;;;;;30.30;14.48;;;8.50;99.90;;;;;;4993743;28;20474;-77
2023/04/29 04:28:32;;;;;;;24.48;14.10;;;8.50;99.90;;;;;;4988499;28;20054;-79
2023/04/29 04:30:58;;;;;;;27.20;13.90;;;8.50;99.90;;;;;;4999905;28;20045;-77
2023/04/29 04:33:25;;;;;;;23.85;13.13;;;8.50;99.90;;;;;;5004192;28;20137;-78
2023/04/29 04:35:50;;;;;;;29.13;12.45;;;8.50;99.90;;;;;;4991077;28;20176;-77
2023/04/29 04:38:16;;;;;;;25.98;13.32;;;8.50;99.90;;;;;;5004574;28;20514;-78
2023/04/29 04:40:44;;;;;;;22.77;12.70;;;8.60;99.90;;;;;;4990118;28;20058;-78
2023/04/29 04:43:10;;;;;;;28.15;12.80;;;8.50;99.90;;;;;;5006548;28;20052;-79
2023/04/29 04:45:36;;;;;;;28.35;11.73;;;8.50;99.90;;;;;;5007530;28;20128;-78
2023/04/29 04:48:02;;;;;;;23.05;12.43;;;8.50;99.90;;;;;;4990009;28;20113;-77
2023/04/29 04:50:28;;;;;;;20.58;11.82;;;8.50;99.90;;;;;;5005820;28;20435;-78
2023/04/29 04:52:55;;;;;;;24.48;12.30;;;8.50;99.90;;;;;;5000224;28;20116;-78
2023/04/29 04:55:22;;;;;;;27.58;11.38;;;8.50;99.90;;;;;;5001851;28;20125;-78
2023/04/29 04:57:47;;;;;;;23.48;11.38;;;8.50;99.90;;;;;;4982734;28;20133;-78
2023/04/29 05:00:13;;;;;;;26.70;11.48;;;8.50;99.90;;;;;;5004999;28;20161;-77
2023/04/29 05:02:39;;;;;;;21.88;12.25;;;8.50;99.90;;;;;;5006639;28;20525;-77
2023/04/29 05:05:05;;;;;;;23.25;11.30;;;8.50;99.90;;;;;;5006726;28;20049;-78
2023/04/29 05:07:34;;;;;;;22.95;11.55;;;8.50;99.90;;;;;;5006153;28;20077;-78
2023/04/29 05:10:01;;;;;;;25.38;10.85;;;8.50;99.90;;;;;;5006208;28;20104;-78
2023/04/29 05:12:29;;;;;;;21.20;10.98;;;8.50;99.90;;;;;;5007416;28;20042;-79
2023/04/29 05:14:55;;;;;;;19.90;9.95;;;8.50;99.90;;;;;;5005220;28;20431;-78
2023/04/29 05:17:21;;;;;;;20.75;11.15;;;9.10;99.90;;;;;;5007663;28;20052;-78
2023/04/29 05:19:47;;;;;;;22.90;10.88;;;8.50;99.90;;;;;;5005617;28;20042;-77
2023/04/29 05:22:12;;;;;;;19.48;10.07;;;8.60;99.90;;;;;;4996362;28;20125;-78
2023/04/29 05:24:38;;;;;;;21.83;9.95;;;8.50;99.90;;;;;;4989563;28;20088;-78
2023/04/29 05:27:04;;;;;;;21.95;10.68;;;8.50;99.90;;;;;;5007079;28;20041;-78
2023/04/29 05:29:30;;;;;;;23.48;10.63;;;8.60;99.90;;;;;;4980496;28;20042;-78
2023/04/29 05:31:55;;;;;;;17.67;9.95;;;8.60;99.90;;;;;;4995827;28;20042;-79
2023/04/29 05:34:21;;;;;;;22.83;10.05;;;8.50;99.90;;;;;;5005522;28;20410;-78
2023/04/29 05:36:47;;;;;;;22.65;9.40;;;8.50;99.90;;;;;;5003129;28;20085;-79
2023/04/29 05:39:13;;;;;;;18.95;10.05;;;8.60;99.90;;;;;;5005427;28;20053;-78
2023/04/29 05:41:39;;;;;;;21.40;10.07;;;8.50;99.90;;;;;;4990287;28;20087;-79
2023/04/29 05:44:05;;;;;;;21.70;9.65;;;8.60;99.90;;;;;;5002312;28;20481;-79
2023/04/29 05:46:30;;;;;;;22.58;11.43;;;8.60;99.90;;;;;;5007743;28;20630;-79
2023/04/29 05:48:56;;;;;;;23.90;9.20;;;8.60;99.90;;;;;;5006221;28;20042;-79
2023/04/29 05:51:22;;;;;;;16.25;9.85;;;8.60;99.90;;;;;;4989535;28;20533;-79
2023/04/29 05:53:47;;;;;;;17.70;9.35;;;8.60;99.90;;;;;;5001716;28;20050;-79
2023/04/29 05:56:13;;;;;;;19.83;9.05;;;8.70;99.90;;;;;;4994965;28;20095;-79
2023/04/29 05:58:39;;;;;;;18.10;9.18;;;8.70;99.90;;;;;;4991790;28;20124;-80
2023/04/29 06:01:04;;;;;;;18.73;9.85;;;8.70;99.90;;;;;;4992571;28;20041;-79
2023/04/29 06:03:30;;;;;;;26.00;10.10;;;8.80;99.90;;;;;;5005090;28;20132;-79
2023/04/29 06:05:57;;;;;;;17.15;9.85;;;8.80;99.90;;;;;;4988306;28;20037;-79
2023/04/29 06:08:23;;;;;;;20.88;9.35;;;8.80;99.90;;;;;;5004572;28;20054;-79
2023/04/29 06:10:51;;;;;;;24.35;10.55;;;8.90;99.90;;;;;;5004616;28;20057;-81
2023/04/29 06:13:17;;;;;;;18.08;9.35;;;8.90;99.90;;;;;;5006633;28;20434;-80
2023/04/29 06:15:43;;;;;;;17.83;8.63;;;8.90;99.90;;;;;;5004961;28;20058;-81
2023/04/29 06:18:09;;;;;;;17.38;9.23;;;9.00;99.90;;;;;;5003423;28;20125;-81
2023/04/29 06:20:34;;;;;;;18.90;9.43;;;9.00;99.90;;;;;;5005980;28;20188;-81
2023/04/29 06:23:00;;;;;;;16.35;9.57;;;9.10;99.90;;;;;;5000714;28;20038;-81
2023/04/29 06:25:26;;;;;;;23.63;9.50;;;9.10;99.90;;;;;;4974695;28;20140;-80
2023/04/29 06:27:51;;;;;;;20.30;9.45;;;9.60;99.90;;;;;;4994711;28;20050;-80
2023/04/29 06:30:17;;;;;;;20.08;8.43;;;9.30;99.90;;;;;;5000855;28;20196;-81
2023/04/29 06:32:43;;;;;;;17.33;8.18;;;9.50;99.90;;;;;;5001488;28;20042;-81
2023/04/29 06:35:09;;;;;;;19.33;8.10;;;9.60;99.90;;;;;;4996943;28;20085;-81
2023/04/29 06:37:34;;;;;;;16.30;7.80;;;9.70;99.90;;;;;;4990431;28;20084;-82
2023/04/29 06:40:00;;;;;;;15.93;7.97;;;9.80;99.90;;;;;;4985441;28;20049;-80
2023/04/29 06:42:26;;;;;;;18.67;7.90;;;9.90;99.90;;;;;;4983499;28;20651;-81
2023/04/29 06:44:51;;;;;;;16.13;7.60;;;10.00;99.90;;;;;;4969921;28;20069;-80
2023/04/29 06:47:17;;;;;;;16.45;7.10;;;10.00;99.90;;;;;;4986989;28;20046;-82
2023/04/29 06:49:43;;;;;;;24.35;8.60;;;10.00;99.90;;;;;;4990310;28;20077;-81
2023/04/29 06:52:09;;;;;;;18.95;7.88;;;10.00;99.90;;;;;;4986452;28;20073;-82
2023/04/29 06:54:34;;;;;;;19.67;7.50;;;10.10;99.90;;;;;;4983137;28;21075;-81
2023/04/29 06:57:01;;;;;;;22.13;7.38;;;10.10;99.90;;;;;;4985248;28;20046;-82
2023/04/29 06:59:27;;;;;;;16.67;8.00;;;10.10;99.90;;;;;;4989323;28;20462;-81
2023/04/29 07:01:52;;;;;;;17.02;8.02;;;10.10;99.90;;;;;;4980576;28;20054;-80
2023/04/29 07:04:18;;;;;;;22.35;7.75;;;10.10;99.90;;;;;;4968293;28;20096;-80
2023/04/29 07:06:45;;;;;;;21.33;8.25;;;10.20;99.90;;;;;;4984195;28;20414;-80
2023/04/29 07:09:14;;;;;;;20.30;7.55;;;10.20;99.90;;;;;;4983839;28;20077;-81
2023/04/29 07:11:40;;;;;;;15.68;7.00;;;10.20;99.90;;;;;;4993853;28;20072;-83
2023/04/29 07:14:06;;;;;;;14.27;7.00;;;10.20;99.90;;;;;;4972913;28;20046;-80
2023/04/29 07:16:32;;;;;;;13.18;7.10;;;10.30;99.90;;;;;;4986443;28;20053;-79
2023/04/29 07:18:58;;;;;;;17.30;7.18;;;10.40;99.90;;;;;;4986845;28;20578;-81
2023/04/29 07:21:24;;;;;;;16.20;6.47;;;10.40;99.90;;;;;;4985190;28;20423;-81
2023/04/29 07:23:50;;;;;;;21.27;7.30;;;10.50;99.90;;;;;;4980369;28;20041;-82
2023/04/29 07:26:17;;;;;;;14.48;7.22;;;10.60;99.90;;;;;;4985531;28;20070;-79
2023/04/29 07:28:43;;;;;;;17.98;8.05;;;10.70;99.90;;;;;;4985028;28;20104;-80
2023/04/29 07:31:11;;;;;;;16.58;6.97;;;10.90;99.90;;;;;;4969118;28;20687;-80
2023/04/29 07:33:37;;;;;;;13.85;6.55;;;10.90;99.90;;;;;;4984203;28;20621;-81
2023/04/29 07:36:03;;;;;;;16.85;7.20;;;11.00;99.90;;;;;;4980250;28;20538;-79
2023/04/29 07:38:29;;;;;;;16.08;6.85;;;11.00;99.90;;;;;;4976185;28;20154;-80
2023/04/29 07:40:55;;;;;;;27.48;7.43;;;11.10;99.90;;;;;;4970309;28;20045;-81
2023/04/29 07:43:21;;;;;;;12.90;6.20;;;11.20;99.90;;;;;;4989988;28;20042;-79
2023/04/29 07:45:47;;;;;;;18.08;7.25;;;11.30;99.90;;;;;;4992921;28;20046;-81
2023/04/29 07:48:13;;;;;;;15.60;6.88;;;11.30;99.90;;;;;;4996004;28;20058;-78
2023/04/29 07:50:39;;;;;;;12.40;6.50;;;11.40;99.90;;;;;;4991230;28;20053;-80
2023/04/29 07:53:05;;;;;;;15.40;6.72;;;11.40;99.90;;;;;;4996442;28;20050;-77
2023/04/29 07:55:31;;;;;;;18.50;6.35;;;11.40;99.90;;;;;;4995781;28;20042;-78
2023/04/29 07:57:57;;;;;;;15.55;6.18;;;11.50;99.90;;;;;;4995414;28;20038;-79
2023/04/29 08:00:24;;;;;;;12.68;6.53;;;11.50;99.90;;;;;;4979191;28;20038;-81
2023/04/29 08:02:54;;;;;;;14.30;6.70;;;11.60;99.90;;;;;;4987528;28;20046;-80
2023/04/29 08:05:20;;;;;;;13.63;6.68;;;11.60;99.90;;;;;;4998587;28;20084;-78
2023/04/29 08:07:50;;;;;;;12.82;6.22;;;11.70;99.90;;;;;;4996987;28;20096;-80
2023/04/29 08:10:17;;;;;;;12.88;6.40;;;11.70;99.90;;;;;;4998980;28;22171;-78
2023/04/29 08:12:46;;;;;;;14.88;6.05;;;11.80;99.90;;;;;;5021544;28;20119;-79
2023/04/29 08:15:12;;;;;;;14.82;6.00;;;12.00;99.90;;;;;;4990067;28;20072;-79
2023/04/29 08:17:38;;;;;;;15.85;5.60;;;12.00;99.90;;;;;;4989750;28;20070;-79
2023/04/29 08:20:06;;;;;;;12.30;5.15;;;12.00;99.90;;;;;;5006185;28;20084;-78
2023/04/29 08:22:32;;;;;;;14.18;5.55;;;12.10;99.90;;;;;;4998305;28;20119;-77
2023/04/29 08:24:59;;;;;;;10.45;4.93;;;12.00;99.90;;;;;;4996647;28;20406;-79
2023/04/29 08:27:25;;;;;;;9.02;4.47;;;12.00;99.90;;;;;;5011645;28;20042;-78
2023/04/29 08:29:51;;;;;;;13.32;5.07;;;12.00;99.90;;;;;;4985154;28;20100;-79
2023/04/29 08:32:17;;;;;;;13.32;5.65;;;12.10;99.90;;;;;;4995201;28;20714;-77
2023/04/29 08:34:43;;;;;;;11.25;4.72;;;12.10;99.90;;;;;;4997524;28;20057;-79
2023/04/29 08:37:09;;;;;;;11.23;5.15;;;12.20;99.90;;;;;;4999077;28;20871;-80
2023/04/29 08:39:35;;;;;;;12.75;4.90;;;12.20;99.90;;;;;;4995114;28;21894;-74
2023/04/29 08:42:08;;;;;;;16.02;5.68;;;12.20;99.90;;;;;;4991717;28;20144;-74
2023/04/29 08:44:34;;;;;;;12.13;5.20;;;12.30;99.90;;;;;;4991441;28;20045;-75
2023/04/29 08:47:01;;;;;;;11.57;4.75;;;12.40;99.90;;;;;;4990218;28;20033;-76
2023/04/29 08:49:28;;;;;;;10.00;4.72;;;12.50;99.90;;;;;;4996856;28;20136;-75
2023/04/29 08:51:54;;;;;;;14.85;5.22;;;12.50;99.90;;;;;;4998890;28;20479;-73
2023/04/29 08:54:20;;;;;;;10.27;4.05;;;12.60;99.90;;;;;;4995381;28;20077;-75
2023/04/29 08:56:46;;;;;;;11.93;4.65;;;12.60;99.90;;;;;;4997278;28;20081;-75
2023/04/29 08:59:16;;;;;;;8.95;4.70;;;12.60;99.90;;;;;;4997456;28;20069;-76
2023/04/29 09:01:43;;;;;;;10.57;4.53;;;12.60;99.90;;;;;;4992916;28;20073;-75
2023/04/29 09:04:28;;;;;;;13.07;5.70;;;12.50;99.90;;;;;;5000964;28;20052;-75
2023/04/29 09:06:56;;;;;;;10.15;5.38;;;12.50;99.90;;;;;;4993162;28;20054;-73
2023/04/29 09:09:24;;;;;;;13.75;5.32;;;12.50;99.90;;;;;;4995058;28;20120;-75
2023/04/29 09:11:49;;;;;;;10.77;5.28;;;12.40;99.90;;;;;;4987044;28;20422;-75
2023/04/29 09:14:15;;;;;;;10.07;5.72;;;12.50;99.90;;;;;;4992340;28;20069;-75
2023/04/29 09:16:44;;;;;;;9.23;4.45;;;12.60;99.90;;;;;;4994316;28;20088;-74
2023/04/29 09:19:10;;;;;;;12.50;4.75;;;12.60;99.90;;;;;;4994983;28;20058;-75
2023/04/29 09:21:36;;;;;;;11.55;4.65;;;12.60;99.90;;;;;;4993159;28;20046;-75
2023/04/29 09:24:02;;;;;;;8.18;4.32;;;12.70;99.90;;;;;;4974129;28;20453;-75
2023/04/29 09:26:46;;;;;;;12.30;4.57;;;12.80;99.90;;;;;;4991731;28;20034;-76
2023/04/29 09:29:14;;;;;;;10.02;5.25;;;12.80;99.90;;;;;;4996789;28;20795;-75
2023/04/29 09:31:42;;;;;;;14.23;5.65;;;12.80;99.90;;;;;;4973909;28;20061;-75
2023/04/29 09:34:07;;;;;;;8.88;5.20;;;12.90;99.90;;;;;;4994557;28;20045;-74
2023/04/29 09:36:39;;;;;;;11.75;5.70;;;12.90;99.90;;;;;;4980820;28;20046;-75
2023/04/29 09:39:10;;;;;;;11.98;5.70;;;13.00;99.90;;;;;;4979387;28;20057;-75
2023/04/29 09:41:41;;;;;;;14.55;5.15;;;13.00;99.90;;;;;;4997055;28;21241;-76
2023/04/29 09:44:08;;;;;;;12.90;5.32;;;12.90;99.90;;;;;;4999672;28;20053;-75
2023/04/29 09:46:35;;;;;;;12.40;5.38;;;13.00;99.90;;;;;;4995900;28;20487;-75
2023/04/29 09:49:03;;;;;;;12.57;5.13;;;13.00;99.90;;;;;;4993136;28;20050;-74
2023/04/29 09:51:31;;;;;;;9.93;4.78;;;13.00;99.90;;;;;;4998806;28;20080;-75
2023/04/29 09:54:17;;;;;;;11.48;4.78;;;13.00;99.90;;;;;;4998268;28;20170;-75
2023/04/29 09:56:51;;;;;;;15.82;5.60;;;13.10;99.90;;;;;;4977911;28;20046;-74
2023/04/29 09:59:20;;;;;;;13.15;5.53;;;13.10;99.90;;;;;;4991493;28;20818;-74
2023/04/29 10:01:49;;;;;;;12.57;5.88;;;13.10;99.90;;;;;;4988816;28;20173;-75
2023/04/29 10:04:16;;;;;;;12.65;6.05;;;13.10;99.90;;;;;;4990067;28;20522;-74
2023/04/29 10:06:44;;;;;;;14.35;5.28;;;13.10;99.90;;;;;;4992525;28;20841;-75
2023/04/29 10:09:16;;;;;;;11.30;5.25;;;13.10;99.90;;;;;;4993697;28;20574;-75
2023/04/29 10:11:49;;;;;;;13.10;5.43;;;13.00;99.90;;;;;;4989275;28;20082;-75
2023/04/29 10:14:17;;;;;;;13.30;6.20;;;12.90;99.90;;;;;;4988799;28;20108;-75
2023/04/29 10:16:49;;;;;;;14.27;5.90;;;13.00;99.90;;;;;;4994625;28;21735;-74
2023/04/29 10:19:24;;;;;;;16.17;5.70;;;13.10;99.90;;;;;;4993025;28;20132;-75
2023/04/29 10:21:51;;;;;;;10.65;5.60;;;13.10;99.90;;;;;;4993683;28;20042;-75
2023/04/29 10:24:18;;;;;;;14.38;6.55;;;13.20;99.90;;;;;;4993819;28;21299;-75
2023/04/29 10:26:46;;;;;;;12.15;4.95;;;13.20;99.90;;;;;;4980540;28;20088;-74
2023/04/29 10:29:13;;;;;;;13.55;5.03;;;13.20;99.90;;;;;;4995994;28;20057;-74
2023/04/29 10:31:42;;;;;;;10.88;4.65;;;13.20;99.90;;;;;;4994948;28;20048;-75
2023/04/29 10:34:07;;;;;;;10.98;4.97;;;13.20;99.90;;;;;;4990423;28;20056;-74
2023/04/29 10:36:36;;;;;;;9.73;3.80;;;13.20;99.90;;;;;;4990646;28;20328;-74
2023/04/29 10:39:05;;;;;;;10.60;3.80;;;13.20;99.90;;;;;;4991609;28;20068;-74
2023/04/29 10:41:45;;;;;;;8.68;3.25;;;13.20;99.90;;;;;;4992439;28;20038;-73
2023/04/29 10:44:12;;;;;;;5.95;2.63;;;13.10;99.90;;;;;;4993144;28;20116;-75
2023/04/29 10:46:38;;;;;;;5.80;2.55;;;13.20;99.90;;;;;;4973712;28;20069;-74
2023/04/29 10:49:05;;;;;;;8.70;2.85;;;13.10;99.90;;;;;;4990360;28;20072;-74
2023/04/29 10:51:42;;;;;;;9.77;2.83;;;13.20;99.90;;;;;;4988740;28;20128;-75
2023/04/29 10:54:16;;;;;;;6.55;2.60;;;13.20;99.90;;;;;;4987937;28;20593;-75
2023/04/29 10:56:50;;;;;;;6.45;2.45;;;13.20;99.90;;;;;;4988266;28;20935;-72
2023/04/29 10:59:21;;;;;;;7.05;2.70;;;13.30;99.90;;;;;;4972674;28;20789;-73
2023/04/29 11:01:52;;;;;;;7.57;2.90;;;13.30;99.90;;;;;;4977069;28;20164;-73
2023/04/29 11:04:21;;;;;;;10.00;3.13;;;13.40;99.90;;;;;;4998887;28;20045;-74
2023/04/29 11:06:55;;;;;;;6.47;2.40;;;13.40;99.90;;;;;;4995715;28;20046;-73
2023/04/29 11:09:24;;;;;;;6.70;2.72;;;13.40;99.90;;;;;;4995121;28;20528;-74
2023/04/29 11:11:57;;;;;;;7.35;2.60;;;13.30;99.90;;;;;;4986952;28;20038;-75
2023/04/29 11:14:31;;;;;;;5.78;2.10;;;13.40;99.90;;;;;;4993588;28;20042;-75
2023/04/29 11:16:59;;;;;;;5.43;1.73;;;13.40;99.90;;;;;;4992818;28;20042;-75
2023/04/29 11:19:30;;;;;;;6.57;2.08;;;13.40;99.90;;;;;;4992443;28;20049;-75
2023/04/29 11:22:16;;;;;;;8.25;2.10;;;13.40;99.90;;;;;;4991519;28;20397;-76
2023/04/29 11:24:48;;;;;;;8.07;2.22;;;13.50;99.90;;;;;;4976638;28;20065;-74
2023/04/29 11:27:15;;;;;;;7.20;2.20;;;13.40;99.90;;;;;;4994143;28;20050;-74
2023/04/29 11:29:41;;;;;;;7.40;2.53;;;13.50;99.90;;;;;;5000684;28;20781;-73
2023/04/29 11:32:07;;;;;;;7.97;2.90;;;13.40;99.90;;;;;;4995038;28;20038;-76
2023/04/29 11:34:32;;;;;;;7.97;2.85;;;13.50;99.90;;;;;;4981727;28;20423;-75
2023/04/29 11:36:59;;;;;;;7.05;2.88;;;13.40;99.90;;;;;;4991588;28;20111;-76
2023/04/29 11:39:26;;;;;;;7.15;2.50;;;13.40;99.90;;;;;;4993540;28;20133;-74
2023/04/29 11:42:01;;;;;;;9.70;3.20;;;13.40;99.90;;;;;;4995650;28;20038;-74
2023/04/29 11:44:27;;;;;;;7.40;2.75;;;13.40;99.90;;;;;;4992883;28;20087;-73
2023/04/29 11:47:00;;;;;;;9.20;2.80;;;13.40;99.90;;;;;;4980996;28;20678;-73
2023/04/29 11:49:36;;;;;;;7.40;2.95;;;13.50;99.90;;;;;;4996031;28;20037;-74
2023/04/29 11:52:03;;;;;;;9.48;2.53;;;13.60;99.90;;;;;;4999210;28;20203;-73
2023/04/29 11:54:29;;;;;;;6.15;2.20;;;13.60;99.90;;;;;;4996261;28;20058;-73
2023/04/29 11:56:56;;;;;;;5.47;2.05;;;13.50;99.90;;;;;;4991744;28;20042;-74
2023/04/29 11:59:22;;;;;;;10.40;2.55;;;13.60;99.90;;;;;;4990993;28;20049;-78
2023/04/29 12:01:49;;;;;;;7.70;1.90;;;13.60;99.90;;;;;;5000185;28;20085;-76
2023/04/29 12:04:15;;;;;;;7.32;2.28;;;13.60;99.90;;;;;;4996696;28;20481;-77
2023/04/29 12:06:41;;;;;;;7.88;2.10;;;13.60;99.90;;;;;;5000325;28;20872;-78
2023/04/29 12:09:07;;;;;;;7.15;1.88;;;13.50;99.90;;;;;;4996890;28;20104;-77
2023/04/29 12:11:35;;;;;;;6.03;2.13;;;13.50;99.90;;;;;;4998738;28;20054;-78
2023/04/29 12:14:04;;;;;;;6.55;2.60;;;13.60;99.90;;;;;;4997288;28;20052;-75
2023/04/29 12:16:32;;;;;;;6.15;2.25;;;13.50;99.90;;;;;;4998933;28;20042;-76
2023/04/29 12:18:58;;;;;;;9.13;1.70;;;13.50;99.90;;;;;;4992716;28;20061;-79
2023/04/29 12:21:25;;;;;;;9.05;2.13;;;13.50;99.90;;;;;;4998690;28;20050;-78
2023/04/29 12:23:51;;;;;;;7.43;2.00;;;13.50;99.90;;;;;;4996213;28;20206;-78
2023/04/29 12:26:19;;;;;;;7.72;2.20;;;13.60;99.90;;;;;;5000332;28;20063;-78
2023/04/29 12:28:47;;;;;;;6.70;1.70;;;13.50;99.90;;;;;;4997966;28;20050;-75
2023/04/29 12:31:14;;;;;;;4.15;1.73;;;13.50;99.90;;;;;;4998334;28;20053;-76
2023/04/29 12:33:45;;;;;;;5.97;1.55;;;13.60;99.90;;;;;;4995848;28;21903;-78
2023/04/29 12:36:18;;;;;;;6.55;1.77;;;13.60;99.90;;;;;;4994407;28;20050;-77
2023/04/29 12:38:44;;;;;;;4.97;1.70;;;13.70;99.90;;;;;;5004675;28;20522;-77
2023/04/29 12:41:13;;;;;;;6.55;1.98;;;13.80;99.90;;;;;;4981749;28;20053;-77
2023/04/29 12:43:40;;;;;;;5.18;1.95;;;13.80;99.90;;;;;;4996807;28;20053;-76